sensor_id;sensor_type;location;lat;lon;timestamp;P1;durP1;ratioP1;P2;durP2;ratioP2
22973;SDS011;11653;50.848;4.584;2023-04-25T00:01:22;22.90;;;5.93;;
22973;SDS011;11653;50.848;4.584;2023-04-25T00:03:48;24.47;;;6.20;;
22973;SDS011;11653;50.848;4.584;2023-04-25T00:06:13;21.17;;;5.50;;
22973;SDS011;11653;50.848;4.584;2023-04-25T00:08:39;18.73;;;5.87;;
22973;SDS011;11653;50.848;4.584;2023-04-25T00:11:05;15.80;;;5.63;;
22973;SDS011;11653;50.848;4.584;2023-04-25T00:13:31;20.77;;;6.20;;
22973;SDS011;11653;50.848;4.584;2023-04-25T00:15:57;19.87;;;6.10;;
22973;SDS011;11653;50.848;4.584;2023-04-25T00:18:23;24.57;;;6.50;;
22973;SDS011;11653;50.848;4.584;2023-04-25T00:20:49;24.30;;;5.90;;
22973;SDS011;11653;50.848;4.584;2023-04-25T00:23:18;21.00;;;6.17;;
22973;SDS011;11653;50.848;4.584;2023-04-25T00:25:44;19.43;;;5.67;;
22973;SDS011;11653;50.848;4.584;2023-04-25T00:28:11;20.00;;;6.17;;
22973;SDS011;11653;50.848;4.584;2023-04-25T00:30:37;22.37;;;6.17;;
22973;SDS011;11653;50.848;4.584;2023-04-25T00:33:03;25.40;;;5.80;;
22973;SDS011;11653;50.848;4.584;2023-04-25T00:35:29;21.70;;;6.73;;
22973;SDS011;11653;50.848;4.584;2023-04-25T00:37:55;21.77;;;6.73;;
22973;SDS011;11653;50.848;4.584;2023-04-25T00:40:21;21.53;;;5.67;;
22973;SDS011;11653;50.848;4.584;2023-04-25T00:42:47;18.37;;;5.60;;
22973;SDS011;11653;50.848;4.584;2023-04-25T00:45:13;18.77;;;6.23;;
22973;SDS011;11653;50.848;4.584;2023-04-25T00:47:42;16.40;;;5.37;;
22973;SDS011;11653;50.848;4.584;2023-04-25T00:50:08;20.87;;;6.70;;
22973;SDS011;11653;50.848;4.584;2023-04-25T00:52:34;18.83;;;6.00;;
22973;SDS011;11653;50.848;4.584;2023-04-25T00:55:02;21.23;;;5.53;;
22973;SDS011;11653;50.848;4.584;2023-04-25T00:57:28;24.90;;;6.17;;
22973;SDS011;11653;50.848;4.584;2023-04-25T00:59:54;17.47;;;4.90;;
22973;SDS011;11653;50.848;4.584;2023-04-25T01:02:20;21.87;;;5.60;;
22973;SDS011;11653;50.848;4.584;2023-04-25T01:04:47;19.57;;;5.33;;
22973;SDS011;11653;50.848;4.584;2023-04-25T01:07:13;23.97;;;5.73;;
22973;SDS011;11653;50.848;4.584;2023-04-25T01:09:40;16.67;;;6.00;;
22973;SDS011;11653;50.848;4.584;2023-04-25T01:12:06;14.23;;;5.47;;
22973;SDS011;11653;50.848;4.584;2023-04-25T01:14:32;20.40;;;5.80;;
22973;SDS011;11653;50.848;4.584;2023-04-25T01:16:58;20.03;;;6.13;;
22973;SDS011;11653;50.848;4.584;2023-04-25T01:19:23;17.80;;;5.53;;
22973;SDS011;11653;50.848;4.584;2023-04-25T01:21:50;23.87;;;6.03;;
22973;SDS011;11653;50.848;4.584;2023-04-25T01:24:16;19.50;;;6.37;;
22973;SDS011;11653;50.848;4.584;2023-04-25T01:26:42;22.97;;;5.67;;
22973;SDS011;11653;50.848;4.584;2023-04-25T01:29:18;17.50;;;5.57;;
22973;SDS011;11653;50.848;4.584;2023-04-25T01:31:45;17.87;;;5.97;;
22973;SDS011;11653;50.848;4.584;2023-04-25T01:34:14;24.73;;;5.70;;
22973;SDS011;11653;50.848;4.584;2023-04-25T01:36:40;14.80;;;5.63;;
22973;SDS011;11653;50.848;4.584;2023-04-25T01:39:06;22.03;;;6.07;;
22973;SDS011;11653;50.848;4.584;2023-04-25T01:41:32;32.43;;;7.07;;
22973;SDS011;11653;50.848;4.584;2023-04-25T01:43:59;20.87;;;6.20;;
22973;SDS011;11653;50.848;4.584;2023-04-25T01:46:26;22.53;;;5.73;;
22973;SDS011;11653;50.848;4.584;2023-04-25T01:48:52;21.60;;;6.33;;
22973;SDS011;11653;50.848;4.584;2023-04-25T01:51:18;17.67;;;5.60;;
22973;SDS011;11653;50.848;4.584;2023-04-25T01:53:43;19.93;;;6.00;;
22973;SDS011;11653;50.848;4.584;2023-04-25T01:56:09;19.47;;;6.70;;
22973;SDS011;11653;50.848;4.584;2023-04-25T01:58:35;20.57;;;5.93;;
22973;SDS011;11653;50.848;4.584;2023-04-25T02:01:01;18.47;;;5.40;;
22973;SDS011;11653;50.848;4.584;2023-04-25T02:03:27;22.73;;;6.50;;
22973;SDS011;11653;50.848;4.584;2023-04-25T02:05:52;22.30;;;6.10;;
22973;SDS011;11653;50.848;4.584;2023-04-25T02:08:18;25.67;;;6.03;;
22973;SDS011;11653;50.848;4.584;2023-04-25T02:10:44;17.67;;;6.00;;
22973;SDS011;11653;50.848;4.584;2023-04-25T02:13:09;24.97;;;6.23;;
22973;SDS011;11653;50.848;4.584;2023-04-25T02:15:35;30.50;;;6.60;;
22973;SDS011;11653;50.848;4.584;2023-04-25T02:18:01;20.63;;;6.57;;
22973;SDS011;11653;50.848;4.584;2023-04-25T02:20:27;20.23;;;6.57;;
22973;SDS011;11653;50.848;4.584;2023-04-25T02:22:54;25.10;;;6.53;;
22973;SDS011;11653;50.848;4.584;2023-04-25T02:25:19;19.03;;;6.43;;
22973;SDS011;11653;50.848;4.584;2023-04-25T02:27:46;23.47;;;6.57;;
22973;SDS011;11653;50.848;4.584;2023-04-25T02:30:12;28.77;;;6.53;;
22973;SDS011;11653;50.848;4.584;2023-04-25T02:32:38;27.10;;;6.17;;
22973;SDS011;11653;50.848;4.584;2023-04-25T02:35:04;14.40;;;4.77;;
22973;SDS011;11653;50.848;4.584;2023-04-25T02:37:31;15.00;;;4.37;;
22973;SDS011;11653;50.848;4.584;2023-04-25T02:39:57;24.70;;;5.60;;
22973;SDS011;11653;50.848;4.584;2023-04-25T02:42:23;19.33;;;5.93;;
22973;SDS011;11653;50.848;4.584;2023-04-25T02:44:49;15.37;;;5.47;;
22973;SDS011;11653;50.848;4.584;2023-04-25T02:47:14;11.87;;;5.07;;
22973;SDS011;11653;50.848;4.584;2023-04-25T02:49:40;13.53;;;4.90;;
22973;SDS011;11653;50.848;4.584;2023-04-25T02:52:06;18.73;;;5.60;;
22973;SDS011;11653;50.848;4.584;2023-04-25T02:54:31;22.70;;;7.43;;
22973;SDS011;11653;50.848;4.584;2023-04-25T02:56:57;23.43;;;6.27;;
22973;SDS011;11653;50.848;4.584;2023-04-25T02:59:23;21.47;;;6.40;;
22973;SDS011;11653;50.848;4.584;2023-04-25T03:01:50;20.27;;;6.17;;
22973;SDS011;11653;50.848;4.584;2023-04-25T03:04:15;20.87;;;6.83;;
22973;SDS011;11653;50.848;4.584;2023-04-25T03:06:41;18.70;;;6.63;;
22973;SDS011;11653;50.848;4.584;2023-04-25T03:09:06;16.70;;;6.70;;
22973;SDS011;11653;50.848;4.584;2023-04-25T03:11:32;20.63;;;7.80;;
22973;SDS011;11653;50.848;4.584;2023-04-25T03:13:58;25.20;;;6.93;;
22973;SDS011;11653;50.848;4.584;2023-04-25T03:16:23;21.53;;;6.87;;
22973;SDS011;11653;50.848;4.584;2023-04-25T03:18:50;21.00;;;7.43;;
22973;SDS011;11653;50.848;4.584;2023-04-25T03:21:16;25.83;;;8.00;;
22973;SDS011;11653;50.848;4.584;2023-04-25T03:23:42;28.27;;;7.87;;
22973;SDS011;11653;50.848;4.584;2023-04-25T03:26:07;23.20;;;8.67;;
22973;SDS011;11653;50.848;4.584;2023-04-25T03:28:33;21.07;;;7.43;;
22973;SDS011;11653;50.848;4.584;2023-04-25T03:30:58;23.20;;;8.73;;
22973;SDS011;11653;50.848;4.584;2023-04-25T03:33:24;26.27;;;7.83;;
22973;SDS011;11653;50.848;4.584;2023-04-25T03:35:50;26.27;;;7.73;;
22973;SDS011;11653;50.848;4.584;2023-04-25T03:38:16;27.23;;;7.73;;
22973;SDS011;11653;50.848;4.584;2023-04-25T03:40:42;22.10;;;7.10;;
22973;SDS011;11653;50.848;4.584;2023-04-25T03:43:07;22.37;;;6.93;;
22973;SDS011;11653;50.848;4.584;2023-04-25T03:45:33;19.63;;;7.30;;
22973;SDS011;11653;50.848;4.584;2023-04-25T03:47:59;19.47;;;5.97;;
22973;SDS011;11653;50.848;4.584;2023-04-25T03:50:25;20.40;;;5.20;;
22973;SDS011;11653;50.848;4.584;2023-04-25T03:52:50;19.60;;;5.47;;
22973;SDS011;11653;50.848;4.584;2023-04-25T03:55:16;19.27;;;5.20;;
22973;SDS011;11653;50.848;4.584;2023-04-25T03:57:42;21.97;;;5.93;;
22973;SDS011;11653;50.848;4.584;2023-04-25T04:00:07;19.07;;;5.43;;
22973;SDS011;11653;50.848;4.584;2023-04-25T04:02:34;17.63;;;5.23;;
22973;SDS011;11653;50.848;4.584;2023-04-25T04:05:01;23.00;;;5.97;;
22973;SDS011;11653;50.848;4.584;2023-04-25T04:07:27;19.77;;;5.90;;
22973;SDS011;11653;50.848;4.584;2023-04-25T04:09:53;18.57;;;5.43;;
22973;SDS011;11653;50.848;4.584;2023-04-25T04:12:18;22.43;;;5.50;;
22973;SDS011;11653;50.848;4.584;2023-04-25T04:14:44;17.30;;;5.07;;
22973;SDS011;11653;50.848;4.584;2023-04-25T04:17:10;18.10;;;5.20;;
22973;SDS011;11653;50.848;4.584;2023-04-25T04:19:36;20.77;;;5.77;;
22973;SDS011;11653;50.848;4.584;2023-04-25T04:22:02;10.07;;;4.27;;
22973;SDS011;11653;50.848;4.584;2023-04-25T04:24:27;19.57;;;5.37;;
22973;SDS011;11653;50.848;4.584;2023-04-25T04:26:53;17.90;;;4.80;;
22973;SDS011;11653;50.848;4.584;2023-04-25T04:29:18;17.00;;;4.67;;
22973;SDS011;11653;50.848;4.584;2023-04-25T04:31:49;18.20;;;4.87;;
22973;SDS011;11653;50.848;4.584;2023-04-25T04:34:17;15.90;;;4.50;;
22973;SDS011;11653;50.848;4.584;2023-04-25T04:36:43;18.73;;;5.57;;
22973;SDS011;11653;50.848;4.584;2023-04-25T04:39:12;17.73;;;5.53;;
22973;SDS011;11653;50.848;4.584;2023-04-25T04:41:39;14.00;;;4.53;;
22973;SDS011;11653;50.848;4.584;2023-04-25T04:44:04;18.17;;;4.60;;
22973;SDS011;11653;50.848;4.584;2023-04-25T04:46:31;11.07;;;4.60;;
22973;SDS011;11653;50.848;4.584;2023-04-25T04:49:04;16.87;;;5.07;;
22973;SDS011;11653;50.848;4.584;2023-04-25T04:51:30;10.93;;;4.63;;
22973;SDS011;11653;50.848;4.584;2023-04-25T04:53:56;22.13;;;4.73;;
22973;SDS011;11653;50.848;4.584;2023-04-25T04:56:23;18.63;;;5.13;;
22973;SDS011;11653;50.848;4.584;2023-04-25T04:58:50;11.63;;;4.90;;
22973;SDS011;11653;50.848;4.584;2023-04-25T05:01:17;13.10;;;4.93;;
22973;SDS011;11653;50.848;4.584;2023-04-25T05:03:43;15.00;;;4.87;;
22973;SDS011;11653;50.848;4.584;2023-04-25T05:06:08;13.00;;;5.00;;
22973;SDS011;11653;50.848;4.584;2023-04-25T05:08:34;14.27;;;5.20;;
22973;SDS011;11653;50.848;4.584;2023-04-25T05:11:01;16.47;;;6.10;;
22973;SDS011;11653;50.848;4.584;2023-04-25T05:13:27;15.43;;;5.30;;
22973;SDS011;11653;50.848;4.584;2023-04-25T05:15:52;18.03;;;6.80;;
22973;SDS011;11653;50.848;4.584;2023-04-25T05:18:18;24.10;;;6.47;;
22973;SDS011;11653;50.848;4.584;2023-04-25T05:20:43;22.27;;;6.10;;
22973;SDS011;11653;50.848;4.584;2023-04-25T05:23:09;14.40;;;5.27;;
22973;SDS011;11653;50.848;4.584;2023-04-25T05:25:35;14.73;;;5.03;;
22973;SDS011;11653;50.848;4.584;2023-04-25T05:28:00;22.63;;;7.27;;
22973;SDS011;11653;50.848;4.584;2023-04-25T05:30:26;19.40;;;5.87;;
22973;SDS011;11653;50.848;4.584;2023-04-25T05:32:52;17.37;;;5.57;;
22973;SDS011;11653;50.848;4.584;2023-04-25T05:35:17;26.23;;;6.17;;
22973;SDS011;11653;50.848;4.584;2023-04-25T05:37:43;18.73;;;5.87;;
22973;SDS011;11653;50.848;4.584;2023-04-25T05:40:09;18.20;;;6.03;;
22973;SDS011;11653;50.848;4.584;2023-04-25T05:42:35;20.30;;;6.87;;
22973;SDS011;11653;50.848;4.584;2023-04-25T05:45:00;22.03;;;5.83;;
22973;SDS011;11653;50.848;4.584;2023-04-25T05:47:26;26.30;;;5.67;;
22973;SDS011;11653;50.848;4.584;2023-04-25T05:49:53;20.43;;;5.63;;
22973;SDS011;11653;50.848;4.584;2023-04-25T05:52:19;25.33;;;6.27;;
22973;SDS011;11653;50.848;4.584;2023-04-25T05:54:46;19.03;;;5.70;;
22973;SDS011;11653;50.848;4.584;2023-04-25T05:57:45;22.47;;;6.13;;
22973;SDS011;11653;50.848;4.584;2023-04-25T06:00:07;18.33;;;6.37;;
22973;SDS011;11653;50.848;4.584;2023-04-25T06:02:37;20.43;;;6.27;;
22973;SDS011;11653;50.848;4.584;2023-04-25T06:05:03;16.90;;;6.50;;
22973;SDS011;11653;50.848;4.584;2023-04-25T06:07:30;23.53;;;6.13;;
22973;SDS011;11653;50.848;4.584;2023-04-25T06:09:56;19.63;;;5.70;;
22973;SDS011;11653;50.848;4.584;2023-04-25T06:12:22;16.93;;;6.40;;
22973;SDS011;11653;50.848;4.584;2023-04-25T06:14:48;19.67;;;6.97;;
22973;SDS011;11653;50.848;4.584;2023-04-25T06:17:14;20.67;;;6.30;;
22973;SDS011;11653;50.848;4.584;2023-04-25T06:19:39;15.53;;;6.50;;
22973;SDS011;11653;50.848;4.584;2023-04-25T06:22:05;19.53;;;6.50;;
22973;SDS011;11653;50.848;4.584;2023-04-25T06:24:32;23.07;;;7.13;;
22973;SDS011;11653;50.848;4.584;2023-04-25T06:26:58;17.77;;;7.13;;
22973;SDS011;11653;50.848;4.584;2023-04-25T06:29:24;22.80;;;7.10;;
22973;SDS011;11653;50.848;4.584;2023-04-25T06:31:50;18.27;;;6.33;;
22973;SDS011;11653;50.848;4.584;2023-04-25T06:34:16;23.73;;;6.40;;
22973;SDS011;11653;50.848;4.584;2023-04-25T06:36:42;22.73;;;7.07;;
22973;SDS011;11653;50.848;4.584;2023-04-25T06:39:09;22.57;;;6.40;;
22973;SDS011;11653;50.848;4.584;2023-04-25T06:41:35;25.57;;;6.37;;
22973;SDS011;11653;50.848;4.584;2023-04-25T06:44:01;18.83;;;5.97;;
22973;SDS011;11653;50.848;4.584;2023-04-25T06:46:26;22.23;;;6.67;;
22973;SDS011;11653;50.848;4.584;2023-04-25T06:48:52;18.23;;;6.00;;
22973;SDS011;11653;50.848;4.584;2023-04-25T06:51:18;13.93;;;5.73;;
22973;SDS011;11653;50.848;4.584;2023-04-25T06:53:43;23.53;;;6.53;;
22973;SDS011;11653;50.848;4.584;2023-04-25T06:56:09;13.93;;;5.80;;
22973;SDS011;11653;50.848;4.584;2023-04-25T06:58:35;19.00;;;5.80;;
22973;SDS011;11653;50.848;4.584;2023-04-25T07:01:00;19.17;;;5.83;;
22973;SDS011;11653;50.848;4.584;2023-04-25T07:03:26;18.87;;;5.83;;
22973;SDS011;11653;50.848;4.584;2023-04-25T07:05:52;26.30;;;7.00;;
22973;SDS011;11653;50.848;4.584;2023-04-25T07:08:17;18.13;;;5.83;;
22973;SDS011;11653;50.848;4.584;2023-04-25T07:10:43;27.17;;;6.47;;
22973;SDS011;11653;50.848;4.584;2023-04-25T07:13:11;16.77;;;5.57;;
22973;SDS011;11653;50.848;4.584;2023-04-25T07:15:36;20.77;;;6.00;;
22973;SDS011;11653;50.848;4.584;2023-04-25T07:18:02;17.57;;;6.13;;
22973;SDS011;11653;50.848;4.584;2023-04-25T07:20:28;17.03;;;5.70;;
22973;SDS011;11653;50.848;4.584;2023-04-25T07:22:55;23.17;;;7.47;;
22973;SDS011;11653;50.848;4.584;2023-04-25T07:25:22;24.17;;;8.07;;
22973;SDS011;11653;50.848;4.584;2023-04-25T07:27:47;23.20;;;7.47;;
22973;SDS011;11653;50.848;4.584;2023-04-25T07:30:13;19.17;;;7.30;;
22973;SDS011;11653;50.848;4.584;2023-04-25T07:32:39;20.10;;;7.37;;
22973;SDS011;11653;50.848;4.584;2023-04-25T07:35:05;17.73;;;7.50;;
22973;SDS011;11653;50.848;4.584;2023-04-25T07:37:32;20.60;;;7.07;;
22973;SDS011;11653;50.848;4.584;2023-04-25T07:39:58;19.27;;;6.57;;
22973;SDS011;11653;50.848;4.584;2023-04-25T07:42:24;22.70;;;7.57;;
22973;SDS011;11653;50.848;4.584;2023-04-25T07:44:50;19.03;;;7.20;;
22973;SDS011;11653;50.848;4.584;2023-04-25T07:47:16;24.10;;;9.27;;
22973;SDS011;11653;50.848;4.584;2023-04-25T07:49:44;25.97;;;7.97;;
22973;SDS011;11653;50.848;4.584;2023-04-25T07:52:10;28.33;;;9.43;;
22973;SDS011;11653;50.848;4.584;2023-04-25T07:54:36;29.07;;;8.80;;
22973;SDS011;11653;50.848;4.584;2023-04-25T07:57:01;17.67;;;8.03;;
22973;SDS011;11653;50.848;4.584;2023-04-25T07:59:27;18.80;;;7.03;;
22973;SDS011;11653;50.848;4.584;2023-04-25T08:01:53;16.43;;;7.00;;
22973;SDS011;11653;50.848;4.584;2023-04-25T08:04:18;15.97;;;5.40;;
22973;SDS011;11653;50.848;4.584;2023-04-25T08:06:44;15.77;;;5.50;;
22973;SDS011;11653;50.848;4.584;2023-04-25T08:09:11;22.10;;;6.13;;
22973;SDS011;11653;50.848;4.584;2023-04-25T08:11:36;17.67;;;4.90;;
22973;SDS011;11653;50.848;4.584;2023-04-25T08:14:02;13.03;;;4.33;;
22973;SDS011;11653;50.848;4.584;2023-04-25T08:16:28;15.17;;;4.33;;
22973;SDS011;11653;50.848;4.584;2023-04-25T08:18:53;16.90;;;5.40;;
22973;SDS011;11653;50.848;4.584;2023-04-25T08:21:19;17.37;;;5.07;;
22973;SDS011;11653;50.848;4.584;2023-04-25T08:23:45;13.27;;;4.60;;
22973;SDS011;11653;50.848;4.584;2023-04-25T08:26:11;11.33;;;3.90;;
22973;SDS011;11653;50.848;4.584;2023-04-25T08:28:37;13.40;;;3.80;;
22973;SDS011;11653;50.848;4.584;2023-04-25T08:31:02;14.87;;;4.03;;
22973;SDS011;11653;50.848;4.584;2023-04-25T08:33:28;12.37;;;4.57;;
22973;SDS011;11653;50.848;4.584;2023-04-25T08:35:55;10.97;;;4.27;;
22973;SDS011;11653;50.848;4.584;2023-04-25T08:38:20;13.60;;;4.80;;
22973;SDS011;11653;50.848;4.584;2023-04-25T08:40:48;15.47;;;4.40;;
22973;SDS011;11653;50.848;4.584;2023-04-25T08:43:15;11.03;;;3.97;;
22973;SDS011;11653;50.848;4.584;2023-04-25T08:45:44;14.30;;;4.83;;
22973;SDS011;11653;50.848;4.584;2023-04-25T08:48:11;11.77;;;4.37;;
22973;SDS011;11653;50.848;4.584;2023-04-25T08:53:12;11.50;;;4.37;;
22973;SDS011;11653;50.848;4.584;2023-04-25T08:55:43;15.27;;;4.23;;
22973;SDS011;11653;50.848;4.584;2023-04-25T08:58:11;13.77;;;4.03;;
22973;SDS011;11653;50.848;4.584;2023-04-25T09:00:38;10.77;;;3.80;;
22973;SDS011;11653;50.848;4.584;2023-04-25T09:03:04;9.60;;;3.87;;
22973;SDS011;11653;50.848;4.584;2023-04-25T09:05:32;11.70;;;4.17;;
22973;SDS011;11653;50.848;4.584;2023-04-25T09:07:58;11.20;;;4.13;;
22973;SDS011;11653;50.848;4.584;2023-04-25T09:10:25;10.43;;;3.77;;
22973;SDS011;11653;50.848;4.584;2023-04-25T09:13:11;10.97;;;2.80;;
22973;SDS011;11653;50.848;4.584;2023-04-25T09:15:49;10.83;;;3.50;;
22973;SDS011;11653;50.848;4.584;2023-04-25T09:18:26;10.87;;;2.73;;
22973;SDS011;11653;50.848;4.584;2023-04-25T09:20:54;12.03;;;3.37;;
22973;SDS011;11653;50.848;4.584;2023-04-25T09:23:29;10.00;;;2.67;;
22973;SDS011;11653;50.848;4.584;2023-04-25T09:25:55;13.60;;;2.73;;
22973;SDS011;11653;50.848;4.584;2023-04-25T09:28:25;10.07;;;2.80;;
22973;SDS011;11653;50.848;4.584;2023-04-25T09:30:56;10.07;;;2.90;;
22973;SDS011;11653;50.848;4.584;2023-04-25T09:33:29;9.57;;;2.90;;
22973;SDS011;11653;50.848;4.584;2023-04-25T09:36:06;9.63;;;2.63;;
22973;SDS011;11653;50.848;4.584;2023-04-25T09:38:46;15.77;;;3.80;;
22973;SDS011;11653;50.848;4.584;2023-04-25T09:41:12;15.50;;;4.33;;
22973;SDS011;11653;50.848;4.584;2023-04-25T09:43:38;13.60;;;3.80;;
22973;SDS011;11653;50.848;4.584;2023-04-25T09:46:08;14.00;;;3.70;;
22973;SDS011;11653;50.848;4.584;2023-04-25T09:48:34;12.87;;;3.47;;
22973;SDS011;11653;50.848;4.584;2023-04-25T09:51:10;12.97;;;3.67;;
22973;SDS011;11653;50.848;4.584;2023-04-25T09:53:44;7.60;;;3.17;;
22973;SDS011;11653;50.848;4.584;2023-04-25T09:56:12;10.07;;;3.80;;
22973;SDS011;11653;50.848;4.584;2023-04-25T09:58:39;13.93;;;3.90;;
22973;SDS011;11653;50.848;4.584;2023-04-25T10:01:06;9.03;;;2.80;;
22973;SDS011;11653;50.848;4.584;2023-04-25T10:03:34;9.40;;;2.87;;
22973;SDS011;11653;50.848;4.584;2023-04-25T10:06:01;8.17;;;2.20;;
22973;SDS011;11653;50.848;4.584;2023-04-25T10:08:33;9.03;;;2.03;;
22973;SDS011;11653;50.848;4.584;2023-04-25T10:11:01;9.33;;;2.50;;
22973;SDS011;11653;50.848;4.584;2023-04-25T10:13:29;8.40;;;1.77;;
22973;SDS011;11653;50.848;4.584;2023-04-25T10:15:59;4.33;;;1.57;;
22973;SDS011;11653;50.848;4.584;2023-04-25T10:18:26;3.87;;;1.53;;
22973;SDS011;11653;50.848;4.584;2023-04-25T10:20:54;12.27;;;2.00;;
22973;SDS011;11653;50.848;4.584;2023-04-25T10:23:21;7.50;;;2.33;;
22973;SDS011;11653;50.848;4.584;2023-04-25T10:25:48;7.83;;;2.00;;
22973;SDS011;11653;50.848;4.584;2023-04-25T10:28:16;6.63;;;1.97;;
22973;SDS011;11653;50.848;4.584;2023-04-25T10:30:57;7.53;;;1.90;;
22973;SDS011;11653;50.848;4.584;2023-04-25T10:33:37;9.57;;;1.87;;
22973;SDS011;11653;50.848;4.584;2023-04-25T10:36:17;6.37;;;2.03;;
22973;SDS011;11653;50.848;4.584;2023-04-25T10:38:44;6.53;;;1.53;;
22973;SDS011;11653;50.848;4.584;2023-04-25T10:41:11;8.17;;;1.90;;
22973;SDS011;11653;50.848;4.584;2023-04-25T10:43:42;7.63;;;1.80;;
22973;SDS011;11653;50.848;4.584;2023-04-25T10:46:29;4.30;;;1.33;;
22973;SDS011;11653;50.848;4.584;2023-04-25T10:48:59;4.97;;;1.77;;
22973;SDS011;11653;50.848;4.584;2023-04-25T10:51:35;6.27;;;1.93;;
22973;SDS011;11653;50.848;4.584;2023-04-25T10:54:02;6.53;;;1.90;;
22973;SDS011;11653;50.848;4.584;2023-04-25T10:56:32;5.13;;;1.57;;
22973;SDS011;11653;50.848;4.584;2023-04-25T10:59:04;4.50;;;1.40;;
22973;SDS011;11653;50.848;4.584;2023-04-25T11:01:53;5.13;;;1.30;;
22973;SDS011;11653;50.848;4.584;2023-04-25T11:04:24;5.00;;;2.10;;
22973;SDS011;11653;50.848;4.584;2023-04-25T11:09:35;7.10;;;2.60;;
22973;SDS011;11653;50.848;4.584;2023-04-25T11:12:03;6.20;;;1.77;;
22973;SDS011;11653;50.848;4.584;2023-04-25T11:14:29;6.37;;;1.83;;
22973;SDS011;11653;50.848;4.584;2023-04-25T11:16:59;4.37;;;1.87;;
22973;SDS011;11653;50.848;4.584;2023-04-25T11:19:25;6.70;;;2.13;;
22973;SDS011;11653;50.848;4.584;2023-04-25T11:21:58;8.33;;;2.27;;
22973;SDS011;11653;50.848;4.584;2023-04-25T11:24:32;7.33;;;2.00;;
22973;SDS011;11653;50.848;4.584;2023-04-25T11:27:02;4.87;;;1.90;;
22973;SDS011;11653;50.848;4.584;2023-04-25T11:29:29;9.67;;;2.43;;
22973;SDS011;11653;50.848;4.584;2023-04-25T11:31:55;6.60;;;2.20;;
22973;SDS011;11653;50.848;4.584;2023-04-25T11:34:22;7.03;;;2.00;;
22973;SDS011;11653;50.848;4.584;2023-04-25T11:36:50;6.80;;;2.10;;
22973;SDS011;11653;50.848;4.584;2023-04-25T11:39:18;6.73;;;2.40;;
22973;SDS011;11653;50.848;4.584;2023-04-25T11:41:44;7.70;;;2.70;;
22973;SDS011;11653;50.848;4.584;2023-04-25T11:44:10;8.93;;;3.10;;
22973;SDS011;11653;50.848;4.584;2023-04-25T11:46:36;6.83;;;3.53;;
22973;SDS011;11653;50.848;4.584;2023-04-25T11:49:02;5.73;;;2.93;;
22973;SDS011;11653;50.848;4.584;2023-04-25T11:51:29;5.67;;;3.00;;
22973;SDS011;11653;50.848;4.584;2023-04-25T11:53:55;10.50;;;5.13;;
22973;SDS011;11653;50.848;4.584;2023-04-25T11:56:21;6.43;;;2.77;;
22973;SDS011;11653;50.848;4.584;2023-04-25T11:59:01;8.73;;;2.87;;
22973;SDS011;11653;50.848;4.584;2023-04-25T12:01:28;8.53;;;2.50;;
22973;SDS011;11653;50.848;4.584;2023-04-25T12:03:56;6.03;;;1.73;;
22973;SDS011;11653;50.848;4.584;2023-04-25T12:06:28;8.27;;;1.80;;
22973;SDS011;11653;50.848;4.584;2023-04-25T12:09:00;6.83;;;2.27;;
22973;SDS011;11653;50.848;4.584;2023-04-25T12:11:29;9.87;;;2.23;;
22973;SDS011;11653;50.848;4.584;2023-04-25T12:14:01;4.47;;;1.90;;
22973;SDS011;11653;50.848;4.584;2023-04-25T12:16:39;7.10;;;2.10;;
22973;SDS011;11653;50.848;4.584;2023-04-25T12:19:06;7.53;;;2.00;;
22973;SDS011;11653;50.848;4.584;2023-04-25T12:21:32;6.10;;;1.70;;
22973;SDS011;11653;50.848;4.584;2023-04-25T12:24:10;6.33;;;1.80;;
22973;SDS011;11653;50.848;4.584;2023-04-25T12:26:47;9.20;;;1.60;;
22973;SDS011;11653;50.848;4.584;2023-04-25T12:29:23;5.67;;;1.60;;
22973;SDS011;11653;50.848;4.584;2023-04-25T12:31:50;8.33;;;1.60;;
22973;SDS011;11653;50.848;4.584;2023-04-25T12:34:20;3.37;;;1.33;;
22973;SDS011;11653;50.848;4.584;2023-04-25T12:36:47;5.27;;;1.33;;
22973;SDS011;11653;50.848;4.584;2023-04-25T12:39:16;3.67;;;1.50;;
22973;SDS011;11653;50.848;4.584;2023-04-25T12:41:49;4.10;;;1.80;;
22973;SDS011;11653;50.848;4.584;2023-04-25T12:44:18;4.07;;;1.50;;
22973;SDS011;11653;50.848;4.584;2023-04-25T12:46:44;2.20;;;1.20;;
22973;SDS011;11653;50.848;4.584;2023-04-25T12:49:10;4.07;;;1.27;;
22973;SDS011;11653;50.848;4.584;2023-04-25T12:51:36;2.33;;;1.30;;
22973;SDS011;11653;50.848;4.584;2023-04-25T12:54:03;2.73;;;1.40;;
22973;SDS011;11653;50.848;4.584;2023-04-25T12:56:32;3.90;;;1.57;;
22973;SDS011;11653;50.848;4.584;2023-04-25T12:58:58;3.97;;;1.47;;
22973;SDS011;11653;50.848;4.584;2023-04-25T13:01:24;2.77;;;1.83;;
22973;SDS011;11653;50.848;4.584;2023-04-25T13:03:50;5.13;;;1.23;;
22973;SDS011;11653;50.848;4.584;2023-04-25T13:06:16;5.43;;;1.23;;
22973;SDS011;11653;50.848;4.584;2023-04-25T13:08:43;3.17;;;1.30;;
22973;SDS011;11653;50.848;4.584;2023-04-25T13:11:08;3.57;;;1.30;;
22973;SDS011;11653;50.848;4.584;2023-04-25T13:13:34;4.40;;;1.43;;
22973;SDS011;11653;50.848;4.584;2023-04-25T13:16:00;3.83;;;1.10;;
22973;SDS011;11653;50.848;4.584;2023-04-25T13:18:27;4.27;;;1.40;;
22973;SDS011;11653;50.848;4.584;2023-04-25T13:20:56;7.13;;;1.63;;
22973;SDS011;11653;50.848;4.584;2023-04-25T13:23:22;7.60;;;2.10;;
22973;SDS011;11653;50.848;4.584;2023-04-25T13:25:50;5.70;;;1.70;;
22973;SDS011;11653;50.848;4.584;2023-04-25T13:28:15;5.07;;;1.63;;
22973;SDS011;11653;50.848;4.584;2023-04-25T13:30:41;5.20;;;1.50;;
22973;SDS011;11653;50.848;4.584;2023-04-25T13:33:07;6.50;;;1.60;;
22973;SDS011;11653;50.848;4.584;2023-04-25T13:35:34;3.07;;;1.37;;
22973;SDS011;11653;50.848;4.584;2023-04-25T13:38:00;4.97;;;1.63;;
22973;SDS011;11653;50.848;4.584;2023-04-25T13:40:27;4.97;;;1.23;;
22973;SDS011;11653;50.848;4.584;2023-04-25T13:42:53;5.27;;;1.50;;
22973;SDS011;11653;50.848;4.584;2023-04-25T13:45:19;3.87;;;1.10;;
22973;SDS011;11653;50.848;4.584;2023-04-25T13:47:45;5.33;;;1.60;;
22973;SDS011;11653;50.848;4.584;2023-04-25T13:50:11;4.13;;;1.33;;
22973;SDS011;11653;50.848;4.584;2023-04-25T13:52:37;3.70;;;1.37;;
22973;SDS011;11653;50.848;4.584;2023-04-25T13:55:02;5.03;;;1.43;;
22973;SDS011;11653;50.848;4.584;2023-04-25T13:57:31;3.47;;;1.40;;
22973;SDS011;11653;50.848;4.584;2023-04-25T13:59:57;3.97;;;1.50;;
22973;SDS011;11653;50.848;4.584;2023-04-25T14:02:24;3.83;;;1.70;;
22973;SDS011;11653;50.848;4.584;2023-04-25T14:04:50;5.87;;;1.60;;
22973;SDS011;11653;50.848;4.584;2023-04-25T14:07:16;3.90;;;1.73;;
22973;SDS011;11653;50.848;4.584;2023-04-25T14:09:43;3.33;;;1.30;;
22973;SDS011;11653;50.848;4.584;2023-04-25T14:12:08;4.80;;;1.50;;
22973;SDS011;11653;50.848;4.584;2023-04-25T14:14:34;4.47;;;1.60;;
22973;SDS011;11653;50.848;4.584;2023-04-25T14:17:00;4.23;;;1.47;;
22973;SDS011;11653;50.848;4.584;2023-04-25T14:19:26;4.40;;;1.63;;
22973;SDS011;11653;50.848;4.584;2023-04-25T14:21:51;7.07;;;1.30;;
22973;SDS011;11653;50.848;4.584;2023-04-25T14:24:17;5.00;;;1.40;;
22973;SDS011;11653;50.848;4.584;2023-04-25T14:26:43;2.43;;;1.30;;
22973;SDS011;11653;50.848;4.584;2023-04-25T14:29:09;3.80;;;0.97;;
22973;SDS011;11653;50.848;4.584;2023-04-25T14:31:37;4.07;;;1.77;;
22973;SDS011;11653;50.848;4.584;2023-04-25T14:34:04;4.53;;;1.30;;
22973;SDS011;11653;50.848;4.584;2023-04-25T14:36:30;3.90;;;1.40;;
22973;SDS011;11653;50.848;4.584;2023-04-25T14:38:57;6.37;;;1.37;;
22973;SDS011;11653;50.848;4.584;2023-04-25T14:41:24;4.10;;;1.40;;
22973;SDS011;11653;50.848;4.584;2023-04-25T14:43:51;3.03;;;1.23;;